Time;durP1;ratioP1;P1;durP2;ratioP2;P2;SDS_P1;SDS_P2;PMS_P1;PMS_P2;Temp;Humidity;BMP_temperature;BMP_pressure;BME280_temperature;BME280_humidity;BME280_pressure;Samples;Min_cycle;Max_cycle;Signal;HPM_P1;HPM_P2
2022/12/22 03:28:14;;;;;;;2.33;1.40;;;;;;;;;;4972391;28;20054;-59
2022/12/22 03:30:39;;;;;;;3.53;1.90;;;;;;;;;;4964799;28;20110;-58
2022/12/22 03:33:04;;;;;;;3.50;1.40;;;;;;;;;;4963538;28;20034;-59
2022/12/22 03:35:30;;;;;;;4.03;1.48;;;;;;;;;;4973646;28;20065;-59
2022/12/22 03:37:55;;;;;;;4.82;1.65;;;;;;;;;;4965776;28;20476;-58
2022/12/22 03:40:21;;;;;;;2.90;1.60;;;;;;;;;;4970378;28;20054;-58
2022/12/22 03:48:14;;;;;;;1.80;1.40;;;;;;;;;;4977638;28;20034;-59
2022/12/22 03:50:40;;;;;;;2.13;1.30;;;;;;;;;;4969919;28;20085;-60
2022/12/22 03:53:05;;;;;;;2.90;1.40;;;;;;;;;;4970515;28;20977;-60
2022/12/22 03:55:30;;;;;;;2.63;1.38;;;;;;;;;;4972131;28;20034;-60
2022/12/22 03:57:56;;;;;;;1.77;1.20;;;;;;;;;;4966370;28;20460;-60
2022/12/22 04:00:21;;;;;;;2.45;1.40;;;;;;;;;;4970496;28;20847;-60
2022/12/22 04:02:46;;;;;;;4.90;1.50;;;;;;;;;;4964832;28;20084;-62
2022/12/22 04:05:12;;;;;;;3.38;1.60;;;;;;;;;;4966798;28;20037;-58
2022/12/22 04:07:37;;;;;;;2.97;1.50;;;;;;;;;;4969581;28;20038;-59
2022/12/22 04:12:54;;;;;;;2.10;1.40;;;;;;;;;;4974750;28;20110;-58
2022/12/22 04:15:26;;;;;;;3.35;1.45;;;;;;;;;;4985189;28;20117;-60
2022/12/22 04:17:52;;;;;;;2.90;1.50;;;;;;;;;;4964533;28;20035;-57
2022/12/22 04:20:17;;;;;;;2.50;1.33;;;;;;;;;;4973178;28;20053;-59
2022/12/22 04:22:43;;;;;;;3.90;1.60;;;;;;;;;;4965711;28;20027;-59
2022/12/22 04:25:08;;;;;;;1.30;1.10;;;;;;;;;;4966181;28;20126;-59
2022/12/22 04:27:34;;;;;;;3.13;1.70;;;;;;;;;;4973618;28;20035;-58
2022/12/22 04:29:59;;;;;;;3.25;1.60;;;;;;;;;;4969314;28;20029;-58
2022/12/22 04:32:24;;;;;;;3.38;1.63;;;;;;;;;;4979566;28;20501;-58
2022/12/22 04:34:50;;;;;;;3.50;1.80;;;;;;;;;;4969677;28;20034;-58
2022/12/22 04:37:15;;;;;;;3.03;1.63;;;;;;;;;;4972293;28;20122;-59
2022/12/22 04:39:40;;;;;;;5.03;1.80;;;;;;;;;;4974923;28;20050;-59
2022/12/22 04:42:05;;;;;;;2.75;1.63;;;;;;;;;;4968936;28;20030;-58
2022/12/22 04:44:31;;;;;;;3.50;1.58;;;;;;;;;;4976320;28;20038;-59
2022/12/22 04:46:56;;;;;;;4.88;1.60;;;;;;;;;;4968780;28;20038;-58
2022/12/22 04:49:21;;;;;;;4.55;1.52;;;;;;;;;;4970060;28;20031;-59
2022/12/22 04:51:47;;;;;;;5.28;1.70;;;;;;;;;;4973287;28;20059;-59
2022/12/22 04:54:12;;;;;;;2.50;1.65;;;;;;;;;;4969604;28;20026;-59
2022/12/22 04:56:37;;;;;;;4.32;1.75;;;;;;;;;;4975722;28;20042;-59
2022/12/22 04:59:02;;;;;;;3.10;1.52;;;;;;;;;;4969897;28;20038;-59
2022/12/22 05:01:28;;;;;;;8.43;2.20;;;;;;;;;;4967930;28;20027;-60
2022/12/22 05:03:53;;;;;;;3.90;2.08;;;;;;;;;;4976290;28;20026;-59
2022/12/22 05:06:18;;;;;;;5.60;2.10;;;;;;;;;;4971709;28;20085;-59
2022/12/22 05:08:44;;;;;;;3.13;1.52;;;;;;;;;;4972094;28;20026;-59
2022/12/22 05:11:09;;;;;;;11.18;2.45;;;;;;;;;;4970235;28;20404;-59
2022/12/22 05:13:35;;;;;;;6.30;1.90;;;;;;;;;;4968181;28;20050;-58
2022/12/22 05:16:13;;;;;;;3.63;1.80;;;;;;;;;;4975147;28;20085;-58
2022/12/22 05:18:39;;;;;;;6.68;1.80;;;;;;;;;;4970132;28;20035;-58
2022/12/22 05:21:05;;;;;;;3.50;1.63;;;;;;;;;;4974390;28;20022;-58
2022/12/22 05:23:31;;;;;;;2.92;1.77;;;;;;;;;;4971681;28;20030;-58
2022/12/22 05:25:56;;;;;;;4.97;2.03;;;;;;;;;;4967469;28;20041;-58
2022/12/22 05:28:21;;;;;;;4.78;1.90;;;;;;;;;;4972493;28;20031;-58
2022/12/22 05:30:47;;;;;;;6.07;1.58;;;;;;;;;;4967702;28;20022;-58
2022/12/22 05:33:12;;;;;;;6.40;1.80;;;;;;;;;;4975333;28;20041;-58
2022/12/22 05:35:37;;;;;;;4.95;1.90;;;;;;;;;;4967957;28;20627;-58
2022/12/22 05:38:03;;;;;;;6.78;1.60;;;;;;;;;;4966954;28;20038;-58
2022/12/22 05:40:28;;;;;;;4.60;1.70;;;;;;;;;;4973533;28;20104;-58
2022/12/22 05:42:53;;;;;;;3.38;1.60;;;;;;;;;;4970161;28;20030;-58
2022/12/22 05:45:19;;;;;;;5.97;1.80;;;;;;;;;;4971202;28;20031;-57
2022/12/22 05:47:49;;;;;;;6.38;2.03;;;;;;;;;;4965815;28;20428;-58
2022/12/22 05:50:16;;;;;;;8.50;2.22;;;;;;;;;;4970915;28;20149;-58
2022/12/22 05:52:42;;;;;;;3.20;1.60;;;;;;;;;;4973222;28;20599;-58
2022/12/22 05:55:08;;;;;;;6.40;1.80;;;;;;;;;;4968734;28;20026;-58
2022/12/22 05:57:34;;;;;;;4.60;1.70;;;;;;;;;;4971941;28;20065;-59
2022/12/22 05:59:59;;;;;;;7.25;1.75;;;;;;;;;;4966854;28;20106;-58
2022/12/22 06:02:25;;;;;;;8.77;1.90;;;;;;;;;;4966784;28;20029;-58
2022/12/22 06:04:50;;;;;;;8.80;2.03;;;;;;;;;;4981091;28;20026;-58
2022/12/22 06:07:15;;;;;;;9.40;2.03;;;;;;;;;;4967398;28;20118;-58
2022/12/22 06:09:41;;;;;;;6.35;2.30;;;;;;;;;;4976161;28;20535;-59
2022/12/22 06:12:06;;;;;;;7.95;1.83;;;;;;;;;;4967975;28;20786;-58
2022/12/22 06:14:31;;;;;;;8.18;1.77;;;;;;;;;;4968242;28;20027;-60
2022/12/22 06:16:57;;;;;;;5.25;1.63;;;;;;;;;;4973395;28;20031;-59
2022/12/22 06:19:22;;;;;;;8.35;1.60;;;;;;;;;;4968136;28;20481;-58
2022/12/22 06:21:48;;;;;;;4.95;2.00;;;;;;;;;;4973072;28;20414;-58
2022/12/22 06:24:13;;;;;;;4.72;1.85;;;;;;;;;;4968546;28;20023;-58
2022/12/22 06:26:38;;;;;;;7.07;1.98;;;;;;;;;;4970310;28;20027;-59
2022/12/22 06:29:03;;;;;;;5.53;2.20;;;;;;;;;;4971135;28;20077;-58
2022/12/22 06:31:29;;;;;;;8.25;1.92;;;;;;;;;;4967552;28;20058;-59
2022/12/22 06:33:54;;;;;;;7.57;2.00;;;;;;;;;;4972117;28;20579;-59
2022/12/22 06:36:19;;;;;;;6.30;1.75;;;;;;;;;;4967816;28;20492;-58
2022/12/22 06:38:45;;;;;;;7.97;2.13;;;;;;;;;;4964624;28;20031;-59
2022/12/22 06:41:10;;;;;;;7.55;1.88;;;;;;;;;;4969121;28;20041;-59
2022/12/22 06:43:35;;;;;;;7.82;1.80;;;;;;;;;;4965726;28;20679;-59
2022/12/22 06:46:01;;;;;;;11.68;2.50;;;;;;;;;;4971208;28;20489;-59
2022/12/22 06:48:26;;;;;;;10.18;2.40;;;;;;;;;;4968635;28;20031;-59
2022/12/22 06:50:56;;;;;;;11.48;2.92;;;;;;;;;;4964393;28;20027;-59
2022/12/22 06:53:21;;;;;;;9.65;2.08;;;;;;;;;;4978642;28;20251;-58
2022/12/22 06:55:46;;;;;;;5.57;2.15;;;;;;;;;;4965332;28;20567;-58
2022/12/22 06:58:12;;;;;;;10.57;2.60;;;;;;;;;;4978913;28;21610;-59
2022/12/22 07:00:37;;;;;;;8.88;2.70;;;;;;;;;;4973751;28;20058;-59
2022/12/22 07:03:02;;;;;;;8.23;2.58;;;;;;;;;;4968811;28;20039;-59
2022/12/22 07:05:30;;;;;;;8.15;2.30;;;;;;;;;;4969006;28;20037;-59
2022/12/22 07:07:56;;;;;;;10.55;2.22;;;;;;;;;;4968526;28;20096;-59
2022/12/22 07:10:56;;;;;;;6.68;2.40;;;;;;;;;;4971691;28;20038;-59
2022/12/22 07:13:17;;;;;;;10.80;2.42;;;;;;;;;;4974575;28;20097;-58
2022/12/22 07:15:43;;;;;;;7.78;2.85;;;;;;;;;;4968027;28;20550;-59
2022/12/22 07:18:08;;;;;;;9.38;2.38;;;;;;;;;;4975453;28;20047;-59
2022/12/22 07:20:34;;;;;;;9.95;2.70;;;;;;;;;;4964225;28;20122;-58
2022/12/22 07:22:59;;;;;;;13.88;3.38;;;;;;;;;;4969335;28;20031;-59
2022/12/22 07:25:25;;;;;;;7.03;2.33;;;;;;;;;;4969992;28;20216;-62
2022/12/22 07:27:50;;;;;;;12.27;3.05;;;;;;;;;;4968098;28;20039;-59
2022/12/22 07:30:15;;;;;;;10.70;2.65;;;;;;;;;;4972439;28;20059;-59
2022/12/22 07:32:41;;;;;;;10.40;2.88;;;;;;;;;;4969191;28;20031;-59
2022/12/22 07:35:09;;;;;;;13.68;2.80;;;;;;;;;;4966942;28;20073;-59
2022/12/22 07:37:34;;;;;;;16.10;3.25;;;;;;;;;;4969094;28;20479;-59
2022/12/22 07:40:00;;;;;;;8.60;2.83;;;;;;;;;;4968801;28;20778;-59
2022/12/22 07:42:43;;;;;;;9.20;3.10;;;;;;;;;;4973117;28;20078;-59
2022/12/22 07:45:10;;;;;;;9.80;3.10;;;;;;;;;;4970814;28;20065;-59
2022/12/22 07:47:35;;;;;;;11.52;3.00;;;;;;;;;;4965537;28;20031;-59
2022/12/22 07:52:45;;;;;;;15.88;3.40;;;;;;;;;;4963355;28;20027;-59
2022/12/22 07:55:10;;;;;;;12.70;2.90;;;;;;;;;;4969901;28;20042;-59
2022/12/22 07:57:35;;;;;;;10.10;3.20;;;;;;;;;;4971299;28;20031;-59
2022/12/22 08:00:01;;;;;;;13.40;2.85;;;;;;;;;;4953782;28;20038;-59
2022/12/22 08:02:26;;;;;;;11.55;2.78;;;;;;;;;;4960233;28;20095;-59
2022/12/22 08:04:51;;;;;;;9.98;3.08;;;;;;;;;;4971103;28;20034;-59
2022/12/22 08:07:17;;;;;;;11.35;3.60;;;;;;;;;;4970340;28;20042;-58
2022/12/22 08:09:42;;;;;;;12.25;3.42;;;;;;;;;;4974011;28;20033;-59
2022/12/22 08:12:08;;;;;;;9.55;2.92;;;;;;;;;;4970368;28;20026;-58
2022/12/22 08:14:33;;;;;;;13.25;3.00;;;;;;;;;;4973372;28;20038;-58
2022/12/22 08:16:58;;;;;;;9.27;2.40;;;;;;;;;;4974687;28;20085;-58
2022/12/22 08:19:23;;;;;;;11.07;2.90;;;;;;;;;;4972696;28;20065;-59
2022/12/22 08:21:49;;;;;;;7.47;2.70;;;;;;;;;;4975623;28;20888;-59
2022/12/22 08:24:14;;;;;;;7.95;2.08;;;;;;;;;;4973231;28;20445;-59
2022/12/22 08:26:41;;;;;;;7.28;2.70;;;;;;;;;;4972092;28;20050;-59
2022/12/22 08:29:09;;;;;;;11.82;3.00;;;;;;;;;;4968214;28;20043;-59
2022/12/22 08:31:34;;;;;;;10.82;2.80;;;;;;;;;;4971600;28;20547;-59
2022/12/22 08:34:01;;;;;;;11.95;2.50;;;;;;;;;;4971925;28;20035;-57
2022/12/22 08:36:28;;;;;;;7.30;2.80;;;;;;;;;;4973171;28;20046;-58
2022/12/22 08:38:54;;;;;;;8.33;2.20;;;;;;;;;;4971985;28;20153;-57
2022/12/22 08:41:48;;;;;;;9.48;3.35;;;;;;;;;;4974773;28;20043;-57
2022/12/22 08:44:05;;;;;;;9.07;2.83;;;;;;;;;;4970136;28;20070;-57
2022/12/22 08:46:30;;;;;;;11.98;2.70;;;;;;;;;;4972045;28;20051;-57
2022/12/22 08:48:55;;;;;;;8.10;2.70;;;;;;;;;;4970237;28;20042;-60
2022/12/22 08:51:21;;;;;;;7.72;2.13;;;;;;;;;;4975047;28;20140;-57
2022/12/22 08:53:46;;;;;;;8.75;2.65;;;;;;;;;;4972536;28;20086;-57
2022/12/22 08:56:11;;;;;;;5.57;2.67;;;;;;;;;;4975307;28;20026;-57
2022/12/22 08:58:37;;;;;;;6.00;2.20;;;;;;;;;;4971803;28;20213;-57
2022/12/22 09:01:02;;;;;;;8.68;2.75;;;;;;;;;;4970750;28;20527;-57
2022/12/22 09:03:27;;;;;;;10.27;2.80;;;;;;;;;;4971957;28;20034;-59
2022/12/22 09:05:58;;;;;;;12.40;2.60;;;;;;;;;;4973092;28;20724;-59
2022/12/22 09:08:24;;;;;;;10.68;2.95;;;;;;;;;;4968882;28;20030;-57
2022/12/22 09:10:49;;;;;;;9.38;3.10;;;;;;;;;;4969999;28;20081;-57
2022/12/22 09:13:14;;;;;;;12.52;3.25;;;;;;;;;;4973436;28;20377;-57
2022/12/22 09:15:40;;;;;;;9.85;2.60;;;;;;;;;;4977693;28;20053;-57
2022/12/22 09:18:05;;;;;;;9.43;2.75;;;;;;;;;;4978741;28;20026;-57
2022/12/22 09:20:30;;;;;;;11.38;3.15;;;;;;;;;;4977248;28;20034;-57
2022/12/22 09:22:55;;;;;;;12.05;3.42;;;;;;;;;;4974430;28;20489;-57
2022/12/22 09:25:21;;;;;;;9.57;2.67;;;;;;;;;;4977228;28;20030;-57
2022/12/22 09:27:46;;;;;;;13.02;2.85;;;;;;;;;;4977251;28;20045;-57
2022/12/22 09:30:12;;;;;;;8.55;2.78;;;;;;;;;;4960787;28;20035;-57
2022/12/22 09:32:37;;;;;;;13.75;2.58;;;;;;;;;;4978832;28;20528;-60
2022/12/22 09:35:02;;;;;;;13.95;2.67;;;;;;;;;;4978027;28;20050;-60
2022/12/22 09:37:28;;;;;;;12.98;3.10;;;;;;;;;;4976805;28;20035;-57
2022/12/22 09:39:53;;;;;;;12.00;3.00;;;;;;;;;;4978152;28;20043;-59
2022/12/22 09:42:19;;;;;;;16.15;4.10;;;;;;;;;;4975460;28;20070;-57
2022/12/22 09:44:49;;;;;;;10.50;2.63;;;;;;;;;;4974766;28;20087;-58
2022/12/22 09:47:21;;;;;;;10.50;2.25;;;;;;;;;;4974648;28;20066;-58
2022/12/22 09:49:46;;;;;;;10.48;2.72;;;;;;;;;;4989599;28;20038;-58
2022/12/22 09:52:22;;;;;;;10.82;2.85;;;;;;;;;;4975203;28;20391;-58
2022/12/22 09:54:48;;;;;;;10.50;2.33;;;;;;;;;;4977385;28;20037;-58
2022/12/22 09:57:13;;;;;;;12.50;2.88;;;;;;;;;;4977949;28;20023;-58
2022/12/22 09:59:39;;;;;;;10.93;2.40;;;;;;;;;;4962117;28;20106;-58
2022/12/22 10:02:14;;;;;;;7.82;2.20;;;;;;;;;;4976128;28;20162;-58
2022/12/22 10:04:45;;;;;;;12.75;2.60;;;;;;;;;;4975412;28;20038;-59
2022/12/22 10:07:17;;;;;;;14.80;3.35;;;;;;;;;;4974219;28;20039;-59
2022/12/22 10:09:42;;;;;;;6.95;2.17;;;;;;;;;;4989839;28;20054;-59
2022/12/22 10:12:15;;;;;;;10.52;2.38;;;;;;;;;;4975703;28;20054;-58
2022/12/22 10:14:41;;;;;;;9.80;2.65;;;;;;;;;;4977054;28;20658;-57
2022/12/22 10:17:24;;;;;;;13.52;3.25;;;;;;;;;;4975854;28;20149;-57
2022/12/22 10:19:51;;;;;;;8.50;2.67;;;;;;;;;;4974292;28;20049;-55
2022/12/22 10:22:30;;;;;;;11.43;2.63;;;;;;;;;;4975822;28;20062;-57
2022/12/22 10:24:56;;;;;;;8.80;2.60;;;;;;;;;;4974149;28;20042;-55
2022/12/22 10:27:23;;;;;;;13.50;3.00;;;;;;;;;;4973834;28;20035;-56
2022/12/22 10:29:48;;;;;;;9.32;2.63;;;;;;;;;;4974521;28;20133;-53
2022/12/22 10:32:16;;;;;;;14.15;3.42;;;;;;;;;;4978902;28;20042;-54
2022/12/22 10:34:41;;;;;;;;;;;;;;;;;;4976886;28;20038;-55
2022/12/22 10:37:06;;;;;;;5.17;1.90;;;;;;;;;;4977959;28;19914;-56
2022/12/22 10:39:33;;;;;;;11.82;3.05;;;;;;;;;;4978375;28;20460;-55
2022/12/22 10:42:00;;;;;;;10.50;2.72;;;;;;;;;;4975142;28;20093;-53
2022/12/22 10:44:32;;;;;;;9.73;2.30;;;;;;;;;;4975257;28;20030;-54
2022/12/22 10:46:59;;;;;;;26.27;6.35;;;;;;;;;;4974555;28;20046;-54
2022/12/22 10:49:36;;;;;;;11.25;2.83;;;;;;;;;;4974736;28;20420;-54
2022/12/22 10:52:22;;;;;;;12.18;3.42;;;;;;;;;;4990489;28;20045;-57
2022/12/22 10:54:47;;;;;;;11.20;3.10;;;;;;;;;;4975913;28;20030;-56
2022/12/22 10:57:12;;;;;;;11.82;3.03;;;;;;;;;;4975540;28;20490;-53
2022/12/22 10:59:50;;;;;;;13.77;3.25;;;;;;;;;;4974013;28;20050;-56
2022/12/22 11:02:27;;;;;;;9.52;2.20;;;;;;;;;;4971633;28;20045;-53
2022/12/22 11:04:52;;;;;;;;;;;;;;;;;;4972967;28;20461;-56
2022/12/22 11:07:18;;;;;;;6.00;2.17;;;;;;;;;;4971092;28;19976;-57
2022/12/22 11:09:43;;;;;;;6.68;2.95;;;;;;;;;;4975769;28;20453;-53
2022/12/22 11:12:27;;;;;;;12.27;3.40;;;;;;;;;;4971494;28;20771;-55
2022/12/22 11:14:59;;;;;;;11.40;3.00;;;;;;;;;;4972675;28;20026;-55
2022/12/22 11:17:32;;;;;;;7.10;2.42;;;;;;;;;;4976128;28;20035;-56
2022/12/22 11:20:12;;;;;;;9.32;3.40;;;;;;;;;;4975897;28;20035;-56
2022/12/22 11:23:01;;;;;;;7.60;2.25;;;;;;;;;;4974739;28;20125;-56
2022/12/22 11:25:38;;;;;;;10.23;2.83;;;;;;;;;;4966535;28;20481;-55
2022/12/22 11:28:22;;;;;;;9.65;3.03;;;;;;;;;;4973727;28;20041;-56
2022/12/22 11:31:06;;;;;;;9.93;2.58;;;;;;;;;;4973231;28;20043;-57
2022/12/22 11:33:50;;;;;;;9.40;3.33;;;;;;;;;;4976256;28;20129;-57
2022/12/22 11:36:41;;;;;;;6.97;2.20;;;;;;;;;;4975332;28;20385;-56
2022/12/22 11:39:12;;;;;;;8.63;2.10;;;;;;;;;;4946357;28;20046;-55
2022/12/22 11:41:46;;;;;;;5.25;2.10;;;;;;;;;;4974252;28;20039;-56
2022/12/22 11:44:29;;;;;;;6.82;2.17;;;;;;;;;;4975207;28;20030;-57
2022/12/22 11:47:13;;;;;;;4.90;2.00;;;;;;;;;;4978046;28;20046;-54
2022/12/22 11:49:47;;;;;;;7.70;2.80;;;;;;;;;;4973277;28;20034;-57
2022/12/22 11:52:31;;;;;;;5.65;1.85;;;;;;;;;;4972088;28;20037;-56
2022/12/22 11:55:35;;;;;;;5.65;2.47;;;;;;;;;;4975037;28;20054;-57
2022/12/22 11:58:10;;;;;;;7.07;1.98;;;;;;;;;;4922625;29;20689;-57
2022/12/22 12:00:58;;;;;;;5.30;2.15;;;;;;;;;;4905002;29;20028;-56
2022/12/22 12:03:32;;;;;;;8.40;1.90;;;;;;;;;;4949680;28;20962;-57
2022/12/22 12:06:16;;;;;;;8.38;2.10;;;;;;;;;;4968249;28;20140;-57
2022/12/22 12:09:02;;;;;;;7.13;1.98;;;;;;;;;;4970298;28;20046;-57
2022/12/22 12:11:30;;;;;;;4.30;2.10;;;;;;;;;;4973723;28;20035;-57
2022/12/22 12:13:55;;;;;;;4.40;1.80;;;;;;;;;;4970095;28;20035;-58
2022/12/22 12:16:21;;;;;;;5.38;2.08;;;;;;;;;;4975930;28;20049;-58
2022/12/22 12:18:46;;;;;;;3.38;1.90;;;;;;;;;;4974700;28;20446;-56
2022/12/22 12:21:28;;;;;;;6.93;2.28;;;;;;;;;;4974143;28;20437;-57
2022/12/22 12:24:11;;;;;;;5.15;2.33;;;;;;;;;;4987325;28;20038;-57
2022/12/22 12:26:49;;;;;;;6.75;2.53;;;;;;;;;;4972551;28;20115;-57
2022/12/22 12:29:20;;;;;;;8.57;2.28;;;;;;;;;;4972016;28;20038;-56
2022/12/22 12:31:58;;;;;;;9.38;2.60;;;;;;;;;;4972213;28;20138;-57
2022/12/22 12:34:24;;;;;;;4.88;2.17;;;;;;;;;;4970788;28;20038;-58
2022/12/22 12:36:49;;;;;;;6.93;2.45;;;;;;;;;;4970229;28;20048;-58
2022/12/22 12:39:22;;;;;;;9.80;2.65;;;;;;;;;;4973114;28;20035;-58
2022/12/22 12:41:56;;;;;;;11.80;2.60;;;;;;;;;;4972079;28;20060;-57
2022/12/22 12:44:23;;;;;;;5.75;2.10;;;;;;;;;;4971399;28;20015;-58
2022/12/22 12:46:49;;;;;;;7.50;2.00;;;;;;;;;;4970204;28;20153;-56
2022/12/22 12:49:32;;;;;;;4.00;1.52;;;;;;;;;;4974678;28;20050;-58
2022/12/22 12:52:00;;;;;;;7.05;2.45;;;;;;;;;;4981398;28;20104;-57
2022/12/22 12:54:25;;;;;;;4.13;1.83;;;;;;;;;;4977939;28;20034;-57
2022/12/22 12:57:06;;;;;;;4.20;1.80;;;;;;;;;;4975949;28;20037;-57
2022/12/22 12:59:37;;;;;;;5.47;1.90;;;;;;;;;;4990981;28;20051;-58
2022/12/22 13:02:02;;;;;;;5.35;2.10;;;;;;;;;;4976208;28;20041;-56
2022/12/22 13:04:47;;;;;;;4.13;1.80;;;;;;;;;;4976567;28;20038;-58
2022/12/22 13:07:13;;;;;;;9.40;2.10;;;;;;;;;;4977405;28;20113;-57
2022/12/22 13:09:58;;;;;;;7.47;2.15;;;;;;;;;;4978267;28;20142;-58
2022/12/22 13:12:33;;;;;;;6.22;1.80;;;;;;;;;;4978335;28;20032;-58
2022/12/22 13:15:00;;;;;;;2.95;1.20;;;;;;;;;;4974252;28;20046;-58
2022/12/22 13:17:47;;;;;;;8.05;1.60;;;;;;;;;;4975038;28;20122;-58
2022/12/22 13:20:12;;;;;;;;;;;;;;;;;;4969378;28;20041;-57
2022/12/22 13:22:39;;;;;;;2.53;1.50;;;;;;;;;;4977431;28;19914;-57
2022/12/22 13:25:04;;;;;;;3.50;1.42;;;;;;;;;;4975096;28;20457;-55
2022/12/22 13:27:30;;;;;;;4.57;1.70;;;;;;;;;;4977816;28;20389;-57
2022/12/22 13:29:55;;;;;;;7.53;1.75;;;;;;;;;;4963643;28;20063;-57
2022/12/22 13:32:22;;;;;;;5.03;1.83;;;;;;;;;;4976255;28;20054;-57
2022/12/22 13:34:48;;;;;;;;;;;;;;;;;;4976114;28;20119;-56
2022/12/22 13:37:18;;;;;;;6.17;1.70;;;;;;;;;;4975869;28;19922;-58
2022/12/22 13:40:02;;;;;;;6.65;1.70;;;;;;;;;;4974505;28;20479;-57
2022/12/22 13:42:28;;;;;;;5.78;1.50;;;;;;;;;;4974785;28;20047;-58
2022/12/22 13:44:53;;;;;;;3.03;1.42;;;;;;;;;;4976329;28;20056;-57
2022/12/22 13:47:18;;;;;;;6.47;2.00;;;;;;;;;;4975891;28;20027;-58
2022/12/22 13:49:44;;;;;;;5.22;1.60;;;;;;;;;;4989951;28;20039;-58
2022/12/22 13:52:12;;;;;;;4.40;1.80;;;;;;;;;;4974101;28;20026;-60
2022/12/22 13:54:38;;;;;;;3.95;1.55;;;;;;;;;;4976537;28;20497;-58
2022/12/22 13:57:10;;;;;;;7.10;1.70;;;;;;;;;;4974809;28;20041;-58
2022/12/22 13:59:39;;;;;;;11.60;2.15;;;;;;;;;;4973824;28;20453;-58
2022/12/22 14:02:07;;;;;;;4.57;1.90;;;;;;;;;;4988270;28;20069;-58
2022/12/22 14:04:33;;;;;;;6.55;2.10;;;;;;;;;;4973624;28;20027;-58
2022/12/22 14:07:18;;;;;;;6.93;1.77;;;;;;;;;;4975736;28;20088;-58
2022/12/22 14:09:44;;;;;;;9.50;1.80;;;;;;;;;;4975418;28;20034;-58
2022/12/22 14:12:14;;;;;;;5.63;1.67;;;;;;;;;;4979547;28;20045;-58
2022/12/22 14:14:41;;;;;;;7.93;2.42;;;;;;;;;;4974215;28;20029;-58
2022/12/22 14:17:32;;;;;;;4.25;1.90;;;;;;;;;;4974441;28;20027;-58
2022/12/22 14:20:18;;;;;;;6.07;1.77;;;;;;;;;;4970793;28;20050;-58
2022/12/22 14:22:56;;;;;;;8.57;2.03;;;;;;;;;;4970847;28;20062;-58
2022/12/22 14:25:28;;;;;;;4.47;1.60;;;;;;;;;;4975932;28;20035;-58
2022/12/22 14:27:54;;;;;;;6.45;1.95;;;;;;;;;;4977599;28;20705;-58
2022/12/22 14:30:27;;;;;;;4.38;1.55;;;;;;;;;;4976605;28;20034;-58
2022/12/22 14:32:54;;;;;;;5.68;1.98;;;;;;;;;;4974333;28;20133;-58
2022/12/22 14:35:19;;;;;;;6.15;1.83;;;;;;;;;;4974454;28;20042;-58
2022/12/22 14:37:45;;;;;;;9.15;2.47;;;;;;;;;;4975964;28;20042;-58
2022/12/22 14:40:29;;;;;;;5.18;1.88;;;;;;;;;;4976384;28;20049;-58
2022/12/22 14:42:55;;;;;;;7.45;2.45;;;;;;;;;;4972937;28;20031;-58
2022/12/22 14:45:20;;;;;;;7.30;2.47;;;;;;;;;;4974524;28;20092;-58
2022/12/22 14:47:45;;;;;;;8.00;3.85;;;;;;;;;;4975392;28;20449;-58
2022/12/22 14:50:14;;;;;;;7.78;3.80;;;;;;;;;;4963817;28;20386;-58
2022/12/22 14:52:44;;;;;;;10.82;4.15;;;;;;;;;;4972793;28;20034;-58
2022/12/22 14:55:46;;;;;;;8.15;2.92;;;;;;;;;;4980538;28;20034;-58
2022/12/22 14:58:16;;;;;;;10.00;2.92;;;;;;;;;;4921623;29;20047;-58
2022/12/22 15:00:43;;;;;;;6.45;2.50;;;;;;;;;;4964041;28;20127;-58
2022/12/22 15:03:24;;;;;;;10.10;2.20;;;;;;;;;;4972605;28;20088;-58
2022/12/22 15:05:50;;;;;;;9.35;2.38;;;;;;;;;;4974869;28;20485;-58
2022/12/22 15:08:34;;;;;;;11.50;2.33;;;;;;;;;;4975181;28;20035;-58
2022/12/22 15:10:59;;;;;;;7.43;2.47;;;;;;;;;;4969271;28;20035;-57
2022/12/22 15:13:24;;;;;;;5.68;1.92;;;;;;;;;;4979124;28;20041;-58
2022/12/22 15:15:50;;;;;;;7.35;2.10;;;;;;;;;;4972538;28;20030;-58
2022/12/22 15:18:16;;;;;;;12.80;2.70;;;;;;;;;;4972491;28;20041;-58
2022/12/22 15:20:42;;;;;;;10.70;2.20;;;;;;;;;;4975208;28;20042;-58
2022/12/22 15:23:12;;;;;;;12.13;2.60;;;;;;;;;;4979142;28;20449;-58
2022/12/22 15:25:37;;;;;;;10.05;2.45;;;;;;;;;;4972098;28;20449;-58
2022/12/22 15:28:02;;;;;;;17.10;4.05;;;;;;;;;;4979390;28;20146;-59
2022/12/22 15:30:28;;;;;;;11.95;2.63;;;;;;;;;;4972135;28;20034;-57
2022/12/22 15:32:54;;;;;;;12.32;2.53;;;;;;;;;;4971137;28;20033;-59
2022/12/22 15:35:22;;;;;;;14.13;2.85;;;;;;;;;;4973168;28;20030;-59
2022/12/22 15:37:48;;;;;;;9.25;2.40;;;;;;;;;;4972776;28;20507;-59
2022/12/22 15:40:18;;;;;;;9.10;2.55;;;;;;;;;;4971300;28;20046;-58
2022/12/22 15:42:43;;;;;;;16.40;3.72;;;;;;;;;;4971757;28;20043;-59
2022/12/22 15:45:09;;;;;;;15.80;3.30;;;;;;;;;;4972441;28;20088;-58
2022/12/22 15:47:35;;;;;;;17.80;4.15;;;;;;;;;;4973592;28;20031;-59
2022/12/22 15:50:00;;;;;;;16.25;3.78;;;;;;;;;;4975345;28;20042;-57
2022/12/22 15:52:25;;;;;;;18.17;4.40;;;;;;;;;;4972682;28;20030;-57
2022/12/22 15:54:51;;;;;;;13.68;3.78;;;;;;;;;;4977306;28;20026;-57
2022/12/22 15:57:16;;;;;;;17.83;4.95;;;;;;;;;;4961442;28;20353;-58
2022/12/22 15:59:42;;;;;;;15.75;3.80;;;;;;;;;;4973546;28;20034;-59
2022/12/22 16:02:09;;;;;;;15.15;4.43;;;;;;;;;;4973049;28;20105;-59
2022/12/22 16:04:34;;;;;;;;;;;;;;;;;;4971664;28;20173;-58
2022/12/22 16:07:00;;;;;;;15.37;4.10;;;;;;;;;;4966353;28;20024;-58
2022/12/22 16:09:27;;;;;;;13.18;3.83;;;;;;;;;;4976469;28;20092;-58
2022/12/22 16:11:53;;;;;;;9.82;3.08;;;;;;;;;;4972710;28;20134;-58
2022/12/22 16:14:19;;;;;;;12.32;2.97;;;;;;;;;;4979187;28;20149;-58
2022/12/22 16:16:47;;;;;;;8.15;2.50;;;;;;;;;;4986912;28;20062;-59
2022/12/22 16:19:13;;;;;;;9.63;2.85;;;;;;;;;;4974153;28;20126;-60
2022/12/22 16:21:39;;;;;;;16.23;3.08;;;;;;;;;;4975320;28;20049;-58
2022/12/22 16:24:05;;;;;;;13.48;2.80;;;;;;;;;;4975430;28;20030;-57
2022/12/22 16:26:30;;;;;;;14.75;3.40;;;;;;;;;;4976574;28;20126;-58
2022/12/22 16:28:57;;;;;;;9.05;2.47;;;;;;;;;;4975607;28;20104;-58
2022/12/22 16:31:23;;;;;;;12.15;2.90;;;;;;;;;;4978846;28;20042;-58
2022/12/22 16:33:48;;;;;;;11.10;2.20;;;;;;;;;;4978047;28;20034;-58
2022/12/22 16:36:14;;;;;;;11.40;2.97;;;;;;;;;;4984626;28;20027;-58
2022/12/22 16:38:40;;;;;;;9.27;2.33;;;;;;;;;;4982929;28;20502;-58
2022/12/22 16:41:10;;;;;;;10.65;2.33;;;;;;;;;;4980334;28;20115;-58
2022/12/22 16:43:37;;;;;;;12.48;2.95;;;;;;;;;;4982340;28;20033;-58
2022/12/22 16:46:04;;;;;;;10.07;2.55;;;;;;;;;;4973992;28;20042;-58
2022/12/22 16:48:37;;;;;;;11.10;2.45;;;;;;;;;;4976430;28;20041;-58
2022/12/22 16:51:03;;;;;;;7.97;2.25;;;;;;;;;;4977865;28;20039;-58
2022/12/22 16:53:28;;;;;;;11.40;2.72;;;;;;;;;;4979468;28;20423;-58
2022/12/22 16:55:53;;;;;;;13.93;2.83;;;;;;;;;;4981197;28;20026;-59
2022/12/22 16:58:20;;;;;;;9.48;2.42;;;;;;;;;;4974512;28;20865;-58
2022/12/22 17:00:45;;;;;;;7.85;2.47;;;;;;;;;;4968145;28;20034;-59
2022/12/22 17:03:11;;;;;;;10.77;2.50;;;;;;;;;;4975711;28;20424;-59
2022/12/22 17:05:41;;;;;;;11.68;3.10;;;;;;;;;;4973710;28;20580;-59
2022/12/22 17:08:07;;;;;;;10.77;3.00;;;;;;;;;;4972649;28;20536;-59
2022/12/22 17:10:33;;;;;;;12.02;2.88;;;;;;;;;;4973310;28;20038;-59
2022/12/22 17:12:59;;;;;;;12.35;2.60;;;;;;;;;;4971455;28;20031;-59
2022/12/22 17:15:24;;;;;;;11.68;2.70;;;;;;;;;;4973420;28;20030;-59
2022/12/22 17:17:50;;;;;;;12.50;3.10;;;;;;;;;;4973434;28;20022;-59
2022/12/22 17:20:20;;;;;;;16.08;4.53;;;;;;;;;;4973091;28;20116;-59
2022/12/22 17:22:53;;;;;;;11.25;3.78;;;;;;;;;;4987316;28;20067;-59
2022/12/22 17:25:21;;;;;;;13.18;4.03;;;;;;;;;;4972216;28;20117;-59
2022/12/22 17:27:47;;;;;;;23.45;8.85;;;;;;;;;;4973026;28;20022;-59
2022/12/22 17:30:17;;;;;;;17.08;5.45;;;;;;;;;;4976259;28;20042;-58
2022/12/22 17:32:42;;;;;;;14.35;5.10;;;;;;;;;;4973880;28;20042;-59
2022/12/22 17:35:11;;;;;;;21.40;8.75;;;;;;;;;;4969649;28;20030;-58
2022/12/22 17:37:36;;;;;;;14.85;5.63;;;;;;;;;;4973891;28;20497;-58
2022/12/22 17:40:03;;;;;;;34.40;15.25;;;;;;;;;;4971706;28;20039;-58
2022/12/22 17:42:30;;;;;;;20.08;4.47;;;;;;;;;;4978267;28;20554;-58
2022/12/22 17:44:55;;;;;;;32.17;11.73;;;;;;;;;;4972091;28;20030;-58
2022/12/22 17:47:21;;;;;;;37.38;16.13;;;;;;;;;;4971691;28;20037;-58
2022/12/22 17:49:46;;;;;;;24.27;10.07;;;;;;;;;;4957040;28;20030;-58
2022/12/22 17:52:19;;;;;;;22.75;6.72;;;;;;;;;;4972574;28;20053;-58
2022/12/22 17:54:46;;;;;;;16.33;3.65;;;;;;;;;;4972193;28;20044;-58
2022/12/22 17:57:17;;;;;;;29.37;11.77;;;;;;;;;;4969775;28;20485;-59
2022/12/22 17:59:43;;;;;;;32.40;11.70;;;;;;;;;;4971657;28;20190;-59
2022/12/22 18:02:14;;;;;;;48.25;17.55;;;;;;;;;;4971797;28;20034;-59
2022/12/22 18:04:40;;;;;;;49.75;18.30;;;;;;;;;;4972745;28;20049;-58
2022/12/22 18:07:05;;;;;;;78.13;29.13;;;;;;;;;;4969512;28;20026;-58
2022/12/22 18:09:30;;;;;;;30.15;9.00;;;;;;;;;;4971713;28;20035;-59
2022/12/22 18:11:56;;;;;;;25.98;10.30;;;;;;;;;;4971847;28;20121;-59
2022/12/22 18:14:21;;;;;;;13.93;4.25;;;;;;;;;;4971914;28;20101;-59
2022/12/22 18:16:46;;;;;;;13.88;3.92;;;;;;;;;;4975673;28;20041;-59
2022/12/22 18:19:12;;;;;;;21.27;4.68;;;;;;;;;;4970918;28;20034;-59
2022/12/22 18:21:37;;;;;;;22.75;5.60;;;;;;;;;;4978339;28;20093;-59
2022/12/22 18:24:03;;;;;;;20.52;4.10;;;;;;;;;;4972621;28;20121;-58